Time;durP1;ratioP1;P1;durP2;ratioP2;P2;SDS_P1;SDS_P2;PMS_P1;PMS_P2;Temp;Humidity;BMP_temperature;BMP_pressure;BME280_temperature;BME280_humidity;BME280_pressure;Samples;Min_cycle;Max_cycle;Signal;HPM_P1;HPM_P2
2023/03/23 00:01:24;;;;;;;4.77;1.13;;;;;;;12.91;74.90;100060.19;5072682;28;20461;-63
2023/03/23 00:03:52;;;;;;;4.77;1.37;;;;;;;12.94;74.80;100059.53;5073026;28;20472;-63
2023/03/23 00:06:20;;;;;;;5.00;1.53;;;;;;;12.92;74.51;100050.09;5072609;28;20542;-63
2023/03/23 00:08:55;;;;;;;5.63;1.30;;;;;;;12.90;74.67;100045.00;5072664;28;20477;-63
2023/03/23 00:11:23;;;;;;;6.70;1.30;;;;;;;12.87;74.91;100057.31;5072779;28;20445;-63
2023/03/23 00:13:51;;;;;;;4.70;1.30;;;;;;;12.80;75.31;100062.50;5072850;28;20448;-64
2023/03/23 00:16:19;;;;;;;5.70;1.73;;;;;;;12.83;74.32;100061.03;5072936;28;20441;-63
2023/03/23 00:18:46;;;;;;;6.00;1.40;;;;;;;12.88;74.77;100064.38;5072499;28;20501;-63
2023/03/23 00:21:12;;;;;;;6.23;1.17;;;;;;;12.90;75.05;100058.59;5072773;28;20445;-63
2023/03/23 00:23:39;;;;;;;6.07;1.50;;;;;;;12.93;74.80;100049.00;5072804;28;20449;-63
2023/03/23 00:26:08;;;;;;;8.40;1.83;;;;;;;12.99;73.29;100050.41;5072811;28;20568;-63
2023/03/23 00:28:34;;;;;;;7.37;1.40;;;;;;;12.96;74.83;100042.88;5072458;28;20457;-63
2023/03/23 00:31:05;;;;;;;4.70;1.17;;;;;;;12.90;76.04;100042.28;5072404;28;20537;-63
2023/03/23 00:33:37;;;;;;;5.37;1.30;;;;;;;12.83;76.84;100034.66;5072690;28;20426;-63
2023/03/23 00:36:05;;;;;;;4.70;1.10;;;;;;;12.76;77.70;100025.44;5072729;28;20794;-63
2023/03/23 00:38:32;;;;;;;5.40;1.37;;;;;;;12.66;78.47;100029.34;5072625;28;20838;-63
2023/03/23 00:41:02;;;;;;;6.50;1.20;;;;;;;12.55;78.92;100028.91;5072617;28;20441;-63
2023/03/23 00:43:31;;;;;;;7.80;1.33;;;;;;;12.46;79.71;100025.44;5072277;28;20448;-63
2023/03/23 00:46:00;;;;;;;4.90;1.03;;;;;;;12.33;79.84;100015.59;5072174;28;20575;-64
2023/03/23 00:48:29;;;;;;;5.40;1.47;;;;;;;12.20;81.05;100011.97;5074301;28;20491;-63
2023/03/23 00:50:56;;;;;;;6.83;1.67;;;;;;;12.18;81.36;100016.16;5076470;28;20437;-62
2023/03/23 00:53:23;;;;;;;5.00;1.30;;;;;;;12.08;81.95;99999.06;5075905;28;20833;-62
2023/03/23 00:55:50;;;;;;;5.70;1.20;;;;;;;12.04;82.63;100005.47;5075872;28;20974;-63
2023/03/23 00:58:17;;;;;;;6.30;1.20;;;;;;;12.00;82.97;100001.84;5075987;28;20477;-63
2023/03/23 01:00:45;;;;;;;5.43;1.33;;;;;;;11.96;83.11;100000.91;5076071;28;20437;-63
2023/03/23 01:03:17;;;;;;;5.50;1.07;;;;;;;11.91;83.38;100001.06;5075885;28;20461;-63
2023/03/23 01:05:46;;;;;;;6.43;1.70;;;;;;;11.82;83.91;99995.63;5075603;28;20440;-63
2023/03/23 01:08:14;;;;;;;5.00;1.30;;;;;;;11.80;84.42;99992.44;5075693;28;20437;-63
2023/03/23 01:10:41;;;;;;;5.30;1.07;;;;;;;11.74;84.16;99999.16;5091665;22;20527;-68
2023/03/23 01:13:08;;;;;;;5.00;1.60;;;;;;;11.71;83.36;99997.88;5076002;28;20839;-68
2023/03/23 01:15:35;;;;;;;8.20;1.83;;;;;;;11.67;82.53;99985.28;5076361;28;20444;-68
2023/03/23 01:18:04;;;;;;;5.27;1.50;;;;;;;11.59;81.95;99978.75;5075766;28;20448;-70
2023/03/23 01:20:31;;;;;;;5.30;1.30;;;;;;;11.52;82.09;99975.75;5075701;28;20553;-68
2023/03/23 01:23:00;;;;;;;5.30;1.20;;;;;;;11.48;82.76;99975.59;5075733;28;20886;-68
2023/03/23 01:25:27;;;;;;;4.80;1.23;;;;;;;11.43;82.87;99978.50;5075567;28;20959;-70
2023/03/23 01:27:54;;;;;;;17.47;1.70;;;;;;;11.30;83.22;99974.84;5075706;28;20485;-72
2023/03/23 01:30:21;;;;;;;6.33;1.67;;;;;;;11.40;83.82;99984.53;5075759;28;20568;-71
2023/03/23 01:32:48;;;;;;;6.80;1.70;;;;;;;11.46;84.58;99977.03;5075692;28;20437;-71
2023/03/23 01:35:16;;;;;;;5.97;1.57;;;;;;;11.46;84.92;99985.16;5075887;28;20441;-71
2023/03/23 01:37:43;;;;;;;8.60;1.70;;;;;;;11.47;84.55;99984.88;5075647;28;20520;-71
2023/03/23 01:40:10;;;;;;;5.90;1.63;;;;;;;11.52;84.99;99981.19;5075546;28;20549;-71
2023/03/23 01:42:38;;;;;;;6.27;1.80;;;;;;;11.57;84.61;99989.94;5075453;28;20479;-71
2023/03/23 01:45:27;;;;;;;7.07;1.40;;;;;;;11.68;83.07;99976.81;5075470;28;20890;-71
2023/03/23 01:48:09;;;;;;;10.00;1.60;;;;;;;11.80;83.46;99965.31;5074935;28;20986;-71
2023/03/23 01:50:48;;;;;;;6.17;1.63;;;;;;;11.83;83.55;99961.97;5074884;28;20500;-71
2023/03/23 01:53:14;;;;;;;5.20;1.33;;;;;;;11.94;82.53;99962.41;5075238;28;20428;-71
2023/03/23 01:55:44;;;;;;;6.17;1.73;;;;;;;11.98;82.34;99969.59;5075307;28;20437;-71
2023/03/23 01:58:12;;;;;;;5.57;1.57;;;;;;;12.05;81.83;99955.53;5074898;28;20445;-70
2023/03/23 02:00:42;;;;;;;6.20;1.63;;;;;;;12.10;81.65;99947.19;5075187;28;20895;-70
2023/03/23 02:03:13;;;;;;;8.00;2.00;;;;;;;12.16;79.84;99954.00;5075042;28;20449;-69
2023/03/23 02:05:42;;;;;;;6.03;1.73;;;;;;;12.20;80.15;99949.53;5075162;28;20429;-71
2023/03/23 02:08:10;;;;;;;6.30;1.90;;;;;;;12.27;80.22;99957.16;5074985;28;20857;-71
2023/03/23 02:10:38;;;;;;;12.70;2.50;;;;;;;12.26;80.62;99953.66;5074518;28;20914;-70
2023/03/23 02:13:07;;;;;;;9.07;1.87;;;;;;;12.32;78.98;99949.63;5074841;28;20445;-71
2023/03/23 02:15:43;;;;;;;5.90;2.20;;;;;;;12.38;79.18;99945.59;5074781;28;20501;-71
2023/03/23 02:18:17;;;;;;;7.33;1.63;;;;;;;12.43;79.38;99941.09;5074629;28;20906;-71
2023/03/23 02:21:21;;;;;;;7.23;2.40;;;;;;;12.45;78.68;99944.28;5074714;28;20460;-71
2023/03/23 02:24:08;;;;;;;6.53;2.20;;;;;;;12.45;78.40;99930.72;5038776;28;20518;-71
2023/03/23 02:26:45;;;;;;;6.23;2.30;;;;;;;12.46;78.50;99933.09;5074197;28;20993;-71
2023/03/23 02:29:31;;;;;;;9.60;2.20;;;;;;;12.49;77.76;99942.50;5074289;28;20933;-71
2023/03/23 02:32:11;;;;;;;6.47;2.10;;;;;;;12.50;77.59;99941.38;5074652;28;20417;-71
2023/03/23 02:34:42;;;;;;;7.37;2.17;;;;;;;12.54;77.61;99950.47;5074476;28;20438;-71
2023/03/23 02:37:13;;;;;;;9.00;2.60;;;;;;;12.51;77.98;99943.75;5074543;28;20428;-71
2023/03/23 02:39:44;;;;;;;7.23;2.43;;;;;;;12.52;78.58;99947.25;5074380;28;20461;-71
2023/03/23 02:42:15;;;;;;;6.50;2.00;;;;;;;12.46;81.10;99943.16;5073998;28;20476;-71
2023/03/23 02:44:45;;;;;;;5.87;2.00;;;;;;;12.46;81.75;99935.00;5074335;28;20798;-70
2023/03/23 02:47:15;;;;;;;6.70;2.20;;;;;;;12.40;82.91;99939.06;5074280;28;20487;-71
2023/03/23 02:49:47;;;;;;;9.23;2.73;;;;;;;12.41;82.74;99937.91;5073732;28;20986;-71
2023/03/23 02:52:18;;;;;;;7.00;2.30;;;;;;;12.29;83.79;99928.53;5074377;28;20516;-71
2023/03/23 02:54:48;;;;;;;6.03;2.17;;;;;;;12.29;83.57;99930.47;5074348;28;20426;-71
2023/03/23 02:57:14;;;;;;;5.87;2.10;;;;;;;12.30;84.36;99923.91;5073813;28;20437;-71
2023/03/23 02:59:41;;;;;;;8.63;1.77;;;;;;;12.33;85.11;99923.25;5073938;28;20457;-71
2023/03/23 03:02:13;;;;;;;4.70;1.33;;;;;;;12.31;86.09;99926.31;5074087;28;20437;-70
2023/03/23 03:04:42;;;;;;;6.00;1.97;;;;;;;12.34;82.46;99931.06;5073772;28;20429;-72
2023/03/23 03:07:27;;;;;;;5.10;1.03;;;;;;;12.42;81.87;99926.72;5073888;28;20472;-70
2023/03/23 03:09:59;;;;;;;9.47;2.03;;;;;;;12.52;80.59;99926.31;5073298;28;20475;-69
2023/03/23 03:12:35;;;;;;;6.27;1.53;;;;;;;12.59;80.95;99928.53;5073658;28;20425;-70
2023/03/23 03:15:11;;;;;;;6.80;1.70;;;;;;;12.60;79.58;99927.41;5073830;28;20429;-70
2023/03/23 03:17:45;;;;;;;5.30;1.50;;;;;;;12.64;78.98;99922.88;5073540;28;20993;-70
2023/03/23 03:20:14;;;;;;;5.40;1.40;;;;;;;12.68;79.02;99928.47;5073229;28;20457;-71
2023/03/23 03:22:45;;;;;;;4.80;1.20;;;;;;;12.70;78.85;99927.00;5073268;28;20826;-71
2023/03/23 03:25:15;;;;;;;8.37;2.40;;;;;;;12.71;78.82;99938.69;5073703;28;20432;-70
2023/03/23 03:27:45;;;;;;;6.73;1.70;;;;;;;12.63;81.84;99948.47;5073493;28;20468;-70
2023/03/23 03:30:16;;;;;;;6.30;1.83;;;;;;;12.50;83.75;99939.44;5073891;28;20469;-71
2023/03/23 03:32:48;;;;;;;6.40;2.00;;;;;;;12.38;84.99;99937.44;5073161;28;20428;-70
2023/03/23 03:35:15;;;;;;;5.40;1.30;;;;;;;12.25;87.37;99945.81;5073667;28;20430;-70
2023/03/23 03:37:44;;;;;;;5.20;1.60;;;;;;;12.11;89.16;99929.78;5073431;28;20445;-71
2023/03/23 03:40:15;;;;;;;5.63;1.30;;;;;;;11.92;91.93;99937.53;5073103;28;20589;-71
2023/03/23 03:42:44;;;;;;;8.17;1.50;;;;;;;11.78;92.76;99938.50;5073373;28;20503;-71
2023/03/23 03:45:12;;;;;;;4.90;1.20;;;;;;;11.75;92.64;99919.38;5073408;28;20441;-70
2023/03/23 03:47:39;;;;;;;5.20;1.57;;;;;;;11.63;92.91;99926.25;5073229;28;20535;-71
2023/03/23 03:50:07;;;;;;;5.57;1.60;;;;;;;11.63;93.18;99928.16;5073269;28;20463;-71
2023/03/23 03:52:34;;;;;;;5.27;1.13;;;;;;;11.65;92.64;99925.94;5073332;28;20481;-70
2023/03/23 03:55:02;;;;;;;5.73;1.40;;;;;;;11.64;93.14;99921.63;5073124;28;20441;-70
2023/03/23 03:57:28;;;;;;;5.27;1.43;;;;;;;11.66;93.69;99915.88;5072918;28;20818;-70
2023/03/23 03:59:55;;;;;;;5.97;1.67;;;;;;;11.70;94.90;99924.97;5073103;28;20461;-71
2023/03/23 04:02:22;;;;;;;5.93;1.70;;;;;;;11.68;96.29;99922.56;5073115;28;20449;-71
2023/03/23 04:04:52;;;;;;;5.73;1.53;;;;;;;11.68;97.08;99919.84;5073058;28;20445;-70
2023/03/23 04:07:19;;;;;;;5.43;1.37;;;;;;;11.70;98.02;99912.19;5073027;28;20590;-70
2023/03/23 04:09:47;;;;;;;6.10;1.50;;;;;;;11.71;98.67;99908.38;5072713;28;20485;-70
2023/03/23 04:12:16;;;;;;;5.63;1.87;;;;;;;11.73;99.89;99905.31;5073008;28;20445;-70
2023/03/23 04:14:42;;;;;;;5.00;1.20;;;;;;;11.69;100.00;99921.47;5072669;28;20930;-70
2023/03/23 04:17:10;;;;;;;6.30;1.50;;;;;;;11.67;100.00;99923.69;5073025;28;20433;-70
2023/03/23 04:19:38;;;;;;;5.70;1.70;;;;;;;11.60;100.00;99924.22;5072917;28;20464;-70
2023/03/23 04:22:06;;;;;;;4.97;1.10;;;;;;;11.60;100.00;99923.41;5072966;28;20813;-71
2023/03/23 04:24:33;;;;;;;6.17;1.80;;;;;;;11.60;100.00;99896.28;5076928;28;20484;-70
2023/03/23 04:27:01;;;;;;;5.23;1.23;;;;;;;11.59;100.00;99911.75;5076758;28;20477;-70
2023/03/23 04:29:30;;;;;;;5.03;1.43;;;;;;;11.55;100.00;99923.56;5076448;28;20475;-70
2023/03/23 04:31:56;;;;;;;5.10;1.23;;;;;;;11.57;100.00;99913.19;5076752;28;20445;-70
2023/03/23 04:34:23;;;;;;;4.87;1.40;;;;;;;11.56;100.00;99914.34;5076451;28;20441;-70
2023/03/23 04:36:50;;;;;;;5.50;1.50;;;;;;;11.57;100.00;99914.00;5076672;28;20490;-70
2023/03/23 04:39:17;;;;;;;5.47;1.30;;;;;;;11.55;100.00;99915.44;5076607;28;20434;-70
2023/03/23 04:41:45;;;;;;;5.13;1.23;;;;;;;11.53;100.00;99928.53;5076647;28;20449;-67
2023/03/23 04:44:17;;;;;;;6.27;1.50;;;;;;;11.49;100.00;99933.00;5076357;28;20437;-70
2023/03/23 04:46:49;;;;;;;6.37;1.63;;;;;;;11.49;100.00;99941.16;5076514;28;20430;-74
2023/03/23 04:49:20;;;;;;;6.07;1.90;;;;;;;11.48;100.00;99942.28;5076140;28;20523;-73
2023/03/23 04:51:47;;;;;;;5.67;1.70;;;;;;;11.46;100.00;99929.00;5076755;28;20440;-73
2023/03/23 04:54:14;;;;;;;5.30;1.43;;;;;;;11.45;100.00;99937.47;5076625;28;20441;-72
2023/03/23 04:56:41;;;;;;;4.80;1.30;;;;;;;11.44;100.00;99946.75;5076587;28;20445;-73
2023/03/23 04:59:08;;;;;;;6.47;1.43;;;;;;;11.41;100.00;99961.72;5076430;28;20444;-72
2023/03/23 05:01:36;;;;;;;5.20;1.60;;;;;;;11.39;100.00;99958.56;5076340;28;20429;-72
2023/03/23 05:04:05;;;;;;;5.70;1.50;;;;;;;11.42;100.00;99951.66;5076312;28;20490;-70
2023/03/23 05:06:31;;;;;;;5.10;1.57;;;;;;;11.40;100.00;99943.88;5075904;28;20437;-72
2023/03/23 05:08:58;;;;;;;5.40;1.80;;;;;;;11.37;100.00;99942.59;5075662;28;21009;-71
2023/03/23 05:11:25;;;;;;;6.53;1.70;;;;;;;11.36;100.00;99934.78;5075652;28;20476;-72
2023/03/23 05:13:51;;;;;;;5.50;1.70;;;;;;;11.37;100.00;99930.94;5076051;28;20475;-72
2023/03/23 05:16:18;;;;;;;6.73;1.43;;;;;;;11.37;100.00;99931.75;5075985;28;20893;-72
2023/03/23 05:18:45;;;;;;;5.67;2.20;;;;;;;11.33;100.00;99925.41;5075919;28;20529;-67
2023/03/23 05:21:14;;;;;;;6.13;1.43;;;;;;;11.31;100.00;99927.63;5075454;28;20472;-67
2023/03/23 05:23:42;;;;;;;6.53;1.90;;;;;;;11.31;100.00;99927.63;5075555;28;20447;-68
2023/03/23 05:26:08;;;;;;;6.50;1.57;;;;;;;11.29;100.00;99924.44;5075440;28;20437;-67
2023/03/23 05:28:36;;;;;;;4.70;1.33;;;;;;;11.24;100.00;99923.78;5075516;28;20479;-66
2023/03/23 05:31:02;;;;;;;6.03;2.10;;;;;;;11.21;100.00;99941.50;5075616;28;20499;-67
2023/03/23 05:33:29;;;;;;;6.40;1.80;;;;;;;11.19;100.00;99942.94;5074989;28;20903;-68
2023/03/23 05:35:56;;;;;;;7.37;1.93;;;;;;;11.18;100.00;99950.28;5075640;28;20449;-68
2023/03/23 05:38:24;;;;;;;5.87;1.40;;;;;;;11.19;100.00;99954.56;5075265;28;20448;-68
2023/03/23 05:40:52;;;;;;;5.00;1.57;;;;;;;11.13;100.00;99947.75;5075458;28;20461;-68
2023/03/23 05:43:18;;;;;;;5.80;1.50;;;;;;;11.15;100.00;99952.81;5075463;28;20447;-68
2023/03/23 05:45:45;;;;;;;6.20;1.90;;;;;;;11.10;100.00;99953.78;5075097;28;20986;-68
2023/03/23 05:48:12;;;;;;;7.80;2.07;;;;;;;11.06;100.00;99955.53;5075371;28;20535;-67
2023/03/23 05:50:38;;;;;;;7.80;2.23;;;;;;;11.05;100.00;99952.03;5075246;28;20461;-70
2023/03/23 05:53:05;;;;;;;9.87;3.70;;;;;;;10.99;100.00;99947.13;5075189;28;20859;-71
2023/03/23 05:55:33;;;;;;;8.43;2.27;;;;;;;10.98;100.00;99957.16;5075061;28;20445;-67
2023/03/23 05:57:59;;;;;;;6.20;1.90;;;;;;;10.93;100.00;99959.22;5075173;28;20949;-67
2023/03/23 06:00:29;;;;;;;9.30;2.47;;;;;;;10.92;100.00;99963.03;5074807;28;20997;-68
2023/03/23 06:02:57;;;;;;;5.50;1.87;;;;;;;10.90;100.00;99957.94;5075152;28;20535;-68
2023/03/23 06:05:25;;;;;;;7.03;2.50;;;;;;;10.84;100.00;99951.06;5074992;28;20441;-67
2023/03/23 06:07:52;;;;;;;7.20;2.20;;;;;;;10.83;100.00;99961.13;5074515;28;20481;-68
2023/03/23 06:10:19;;;;;;;5.70;2.10;;;;;;;10.78;100.00;99955.88;5074434;28;21075;-68
2023/03/23 06:12:46;;;;;;;7.00;1.50;;;;;;;10.77;100.00;99956.97;5074792;28;20480;-68
2023/03/23 06:15:14;;;;;;;7.27;2.37;;;;;;;10.77;100.00;99961.59;5074772;28;20496;-68
2023/03/23 06:17:41;;;;;;;6.63;1.90;;;;;;;10.77;100.00;99964.31;5074806;28;20441;-68
2023/03/23 06:20:09;;;;;;;6.10;2.00;;;;;;;10.72;100.00;99962.56;5074544;28;20465;-68
2023/03/23 06:22:36;;;;;;;6.63;1.93;;;;;;;10.72;100.00;99961.78;5074626;28;20452;-67
2023/03/23 06:25:03;;;;;;;6.13;1.50;;;;;;;10.70;100.00;99969.41;5073955;28;20492;-67
2023/03/23 06:27:30;;;;;;;5.03;1.33;;;;;;;10.67;100.00;99972.72;5074110;28;20527;-67
2023/03/23 06:29:58;;;;;;;6.27;1.87;;;;;;;10.69;100.00;99965.91;5074416;28;20552;-66
2023/03/23 06:32:27;;;;;;;6.77;1.40;;;;;;;10.71;100.00;99973.69;5074465;28;20524;-67
2023/03/23 06:34:54;;;;;;;5.70;1.70;;;;;;;10.74;100.00;99968.44;5074335;28;20811;-66
2023/03/23 06:37:21;;;;;;;6.77;2.10;;;;;;;10.76;100.00;99968.16;5074361;28;20796;-67
2023/03/23 06:39:48;;;;;;;5.57;1.30;;;;;;;10.77;100.00;99959.69;5074259;28;20470;-66
2023/03/23 06:42:14;;;;;;;6.50;1.73;;;;;;;10.77;100.00;99967.81;5073917;28;20514;-66
2023/03/23 06:44:41;;;;;;;5.67;1.77;;;;;;;10.77;100.00;99977.88;5074053;28;20468;-66
2023/03/23 06:47:09;;;;;;;5.33;1.40;;;;;;;10.78;100.00;99972.13;5073722;28;20449;-67
2023/03/23 06:49:36;;;;;;;4.70;1.10;;;;;;;10.83;100.00;99976.59;5073691;28;20485;-67
2023/03/23 06:52:03;;;;;;;11.27;2.30;;;;;;;10.83;100.00;99976.59;5073956;28;20529;-67
2023/03/23 06:54:30;;;;;;;6.70;1.30;;;;;;;10.86;100.00;99970.53;5073585;28;20439;-66
2023/03/23 06:56:56;;;;;;;6.27;1.50;;;;;;;10.84;100.00;99970.84;5073925;28;20532;-66
2023/03/23 06:59:23;;;;;;;5.30;1.60;;;;;;;10.88;100.00;99957.44;5073455;28;20990;-66
2023/03/23 07:01:50;;;;;;;6.40;1.70;;;;;;;10.90;100.00;99959.88;5073387;28;20572;-66
2023/03/23 07:04:18;;;;;;;5.80;1.57;;;;;;;10.95;100.00;99955.06;5073583;28;20823;-69
2023/03/23 07:06:45;;;;;;;5.43;1.57;;;;;;;10.96;100.00;99945.03;5073555;28;20461;-68
2023/03/23 07:09:11;;;;;;;5.93;1.47;;;;;;;10.98;100.00;99940.06;5073122;28;20552;-71
2023/03/23 07:11:38;;;;;;;6.93;1.73;;;;;;;10.95;100.00;99959.69;5077932;22;20498;-68
2023/03/23 07:14:05;;;;;;;5.40;1.47;;;;;;;10.96;100.00;99977.56;5053635;28;20446;-69
2023/03/23 07:16:32;;;;;;;7.87;1.70;;;;;;;10.96;100.00;99978.34;5053306;28;20449;-67
2023/03/23 07:18:58;;;;;;;6.60;1.70;;;;;;;11.00;100.00;99967.66;5053516;28;20442;-69
2023/03/23 07:21:27;;;;;;;7.50;1.53;;;;;;;11.05;100.00;99967.50;5053352;28;20466;-67
2023/03/23 07:23:53;;;;;;;6.60;1.97;;;;;;;11.09;100.00;99963.03;5053025;28;21006;-67
2023/03/23 07:26:21;;;;;;;7.27;1.77;;;;;;;11.13;100.00;99955.06;5052983;28;20446;-67
2023/03/23 07:28:48;;;;;;;7.70;2.10;;;;;;;11.14;100.00;99954.75;5053377;28;20489;-68
2023/03/23 07:31:14;;;;;;;7.03;2.10;;;;;;;11.18;100.00;99954.91;5052917;28;21026;-67
2023/03/23 07:33:41;;;;;;;6.00;1.97;;;;;;;11.17;100.00;99943.28;5052838;28;20453;-67
2023/03/23 07:36:09;;;;;;;9.27;1.90;;;;;;;11.15;100.00;99923.00;5053590;28;20533;-67
2023/03/23 07:38:37;;;;;;;6.03;1.67;;;;;;;11.17;100.00;99893.69;5052897;28;20787;-67
2023/03/23 07:41:04;;;;;;;6.23;1.73;;;;;;;11.21;100.00;99895.44;5053146;28;20461;-67
2023/03/23 07:43:30;;;;;;;5.00;1.57;;;;;;;11.28;100.00;99917.41;5052980;28;20436;-68
2023/03/23 07:45:57;;;;;;;9.20;3.20;;;;;;;11.35;100.00;99922.34;5053115;28;20872;-67
2023/03/23 07:48:23;;;;;;;5.77;2.13;;;;;;;11.44;100.00;99925.03;5052953;28;20486;-67
2023/03/23 07:50:50;;;;;;;5.50;1.63;;;;;;;11.54;100.00;99938.25;5053010;28;20589;-66
2023/03/23 07:53:17;;;;;;;6.37;1.50;;;;;;;11.55;100.00;99943.38;5052779;28;20536;-67
2023/03/23 07:55:45;;;;;;;7.57;1.97;;;;;;;11.63;100.00;99949.88;5053030;28;20528;-67
2023/03/23 07:58:16;;;;;;;4.83;1.33;;;;;;;11.65;100.00;99953.06;5052596;28;20814;-67
2023/03/23 08:00:43;;;;;;;7.53;2.23;;;;;;;11.69;100.00;99956.75;5052928;28;20500;-67
2023/03/23 08:03:10;;;;;;;5.50;1.73;;;;;;;11.67;100.00;99956.25;5052678;28;20872;-67
2023/03/23 08:05:37;;;;;;;7.87;1.20;;;;;;;11.71;100.00;99959.91;5052961;28;20438;-67
2023/03/23 08:08:04;;;;;;;6.97;2.30;;;;;;;11.75;100.00;99958.16;5052856;28;20442;-67
2023/03/23 08:10:31;;;;;;;5.93;2.03;;;;;;;11.75;100.00;99963.56;5052625;28;20470;-67
2023/03/23 08:13:00;;;;;;;7.23;2.60;;;;;;;11.80;100.00;99966.09;5052880;28;20435;-68
2023/03/23 08:15:27;;;;;;;7.20;2.20;;;;;;;11.79;100.00;99969.16;5052924;28;20454;-67
2023/03/23 08:17:54;;;;;;;5.80;2.00;;;;;;;11.78;100.00;99968.34;5052511;28;20825;-68
2023/03/23 08:20:22;;;;;;;6.27;1.73;;;;;;;11.73;100.00;99968.53;5052787;28;20466;-68
2023/03/23 08:22:52;;;;;;;6.60;1.70;;;;;;;11.78;100.00;99952.06;5052528;28;20453;-68
2023/03/23 08:25:20;;;;;;;5.97;1.70;;;;;;;11.82;100.00;99952.19;5052984;28;20474;-67
2023/03/23 08:27:47;;;;;;;5.40;1.53;;;;;;;11.83;100.00;99983.69;5052734;28;20446;-68
2023/03/23 08:30:18;;;;;;;6.93;2.10;;;;;;;11.81;100.00;99978.53;5052294;28;21002;-68
2023/03/23 08:32:45;;;;;;;20.57;2.03;;;;;;;11.89;100.00;99976.16;5052711;28;20426;-68
2023/03/23 08:35:13;;;;;;;5.97;1.63;;;;;;;11.92;100.00;99978.25;5052463;28;20823;-67
2023/03/23 08:37:41;;;;;;;7.50;2.67;;;;;;;12.01;100.00;99977.09;5052693;28;20496;-67
2023/03/23 08:40:10;;;;;;;7.20;2.27;;;;;;;12.09;100.00;99970.03;5052250;28;20931;-68
2023/03/23 08:42:37;;;;;;;6.70;2.23;;;;;;;12.17;100.00;99974.59;5052759;28;20469;-66
2023/03/23 08:45:05;;;;;;;5.90;1.80;;;;;;;12.23;100.00;99976.03;5052522;28;20823;-68
2023/03/23 08:47:33;;;;;;;6.33;1.67;;;;;;;12.29;100.00;99977.44;5052386;28;20490;-69
2023/03/23 08:50:00;;;;;;;5.13;1.30;;;;;;;12.27;100.00;99968.81;5052140;28;21084;-69
2023/03/23 08:52:26;;;;;;;7.57;1.50;;;;;;;12.25;100.00;99981.13;5052652;28;20557;-69
2023/03/23 08:54:53;;;;;;;5.93;1.50;;;;;;;12.25;100.00;99981.13;5052868;28;20441;-67
2023/03/23 08:57:20;;;;;;;6.27;1.83;;;;;;;12.31;100.00;99988.78;5052606;28;20521;-70
2023/03/23 08:59:46;;;;;;;7.77;2.00;;;;;;;12.31;100.00;99994.22;5052522;28;20435;-69
2023/03/23 09:02:13;;;;;;;5.37;1.33;;;;;;;12.33;100.00;99999.31;5052311;28;20458;-71
2023/03/23 09:04:42;;;;;;;7.63;1.50;;;;;;;12.36;100.00;100002.16;5052111;28;20457;-71
2023/03/23 09:07:10;;;;;;;4.90;1.30;;;;;;;12.35;100.00;99997.88;5052017;28;20955;-72
2023/03/23 09:09:38;;;;;;;7.70;1.70;;;;;;;12.36;100.00;100004.09;5054535;28;20492;-72
2023/03/23 09:12:06;;;;;;;6.30;1.20;;;;;;;12.35;100.00;99991.59;5055496;28;20488;-70
2023/03/23 09:14:32;;;;;;;8.40;1.53;;;;;;;12.41;100.00;99990.31;5055549;28;20528;-69
2023/03/23 09:16:59;;;;;;;7.80;1.53;;;;;;;12.46;100.00;99990.13;5055799;28;20480;-71
2023/03/23 09:19:26;;;;;;;5.13;1.53;;;;;;;12.57;100.00;99982.38;5055718;28;20437;-69
2023/03/23 09:21:54;;;;;;;5.10;1.40;;;;;;;12.63;100.00;99981.09;5055660;28;20533;-69
2023/03/23 09:24:21;;;;;;;5.90;1.60;;;;;;;12.67;100.00;99982.03;5055690;28;20434;-69
2023/03/23 09:26:47;;;;;;;5.27;1.13;;;;;;;12.73;100.00;99986.13;5055656;28;20438;-69
2023/03/23 09:29:14;;;;;;;5.33;1.23;;;;;;;12.80;100.00;99975.53;5055563;28;20486;-69
2023/03/23 09:31:41;;;;;;;5.33;1.33;;;;;;;12.93;100.00;99981.03;5055505;28;20794;-69
2023/03/23 09:34:09;;;;;;;5.43;1.47;;;;;;;13.00;100.00;99984.00;5055412;28;20449;-69
2023/03/23 09:36:36;;;;;;;4.97;1.00;;;;;;;13.08;100.00;99989.38;5055481;28;20442;-69
2023/03/23 09:39:07;;;;;;;5.70;1.37;;;;;;;13.18;100.00;99985.47;5055290;28;20488;-69
2023/03/23 09:41:54;;;;;;;6.23;1.60;;;;;;;13.27;100.00;99988.13;5055242;28;20516;-68
2023/03/23 09:44:25;;;;;;;4.77;0.97;;;;;;;13.41;100.00;99987.84;5055397;28;20492;-71
2023/03/23 09:47:01;;;;;;;7.60;1.80;;;;;;;13.54;100.00;99990.28;5055020;28;20437;-72
2023/03/23 09:49:32;;;;;;;5.37;1.27;;;;;;;13.65;99.55;100007.00;5055370;28;20476;-72
2023/03/23 09:52:04;;;;;;;5.03;1.03;;;;;;;13.76;97.21;100004.63;5055161;28;20466;-69
2023/03/23 09:54:36;;;;;;;5.27;1.20;;;;;;;13.77;97.24;100006.25;5055404;28;20451;-72
2023/03/23 09:57:03;;;;;;;6.70;1.57;;;;;;;13.75;97.89;100003.84;5055319;28;20422;-68
2023/03/23 09:59:33;;;;;;;7.33;1.90;;;;;;;13.83;95.96;100010.31;5055270;28;20442;-68
2023/03/23 10:02:10;;;;;;;5.60;1.30;;;;;;;13.85;96.25;100014.28;5054610;28;20569;-70
2023/03/23 10:04:41;;;;;;;4.70;1.17;;;;;;;13.94;94.83;100014.19;5054766;28;20430;-69
2023/03/23 10:07:13;;;;;;;9.10;1.07;;;;;;;13.96;94.73;100008.44;5054716;28;20469;-69
2023/03/23 10:09:43;;;;;;;6.77;1.80;;;;;;;13.97;93.58;100015.47;5054582;28;21014;-69
2023/03/23 10:12:21;;;;;;;6.10;1.33;;;;;;;13.92;94.42;100002.06;5054478;28;20526;-69
2023/03/23 10:14:59;;;;;;;4.80;1.07;;;;;;;13.91;93.61;100000.47;5054817;28;20798;-70
2023/03/23 10:17:30;;;;;;;4.77;0.90;;;;;;;13.97;92.80;99993.69;5054927;28;20497;-70
2023/03/23 10:20:11;;;;;;;4.30;0.90;;;;;;;13.99;93.51;99999.56;5054392;28;20430;-70
2023/03/23 10:22:43;;;;;;;4.67;1.23;;;;;;;14.14;94.34;99990.75;5054799;28;20435;-69
2023/03/23 10:25:17;;;;;;;4.80;1.10;;;;;;;14.21;90.22;99995.63;5054818;28;20426;-70
2023/03/23 10:27:50;;;;;;;5.63;1.20;;;;;;;14.29;89.74;99992.78;5054635;28;20533;-71
2023/03/23 10:30:24;;;;;;;4.93;0.80;;;;;;;14.37;90.63;99989.16;5054256;28;20478;-70
2023/03/23 10:32:54;;;;;;;4.77;1.13;;;;;;;14.42;89.78;99984.63;5054235;28;20426;-70
2023/03/23 10:35:26;;;;;;;4.20;0.80;;;;;;;14.50;88.88;99975.56;5054504;28;20431;-69
2023/03/23 10:37:57;;;;;;;5.60;0.93;;;;;;;14.61;88.46;99987.59;5054426;28;20517;-69
2023/03/23 10:40:30;;;;;;;4.27;0.83;;;;;;;14.66;88.27;99986.56;5054497;28;20818;-70
2023/03/23 10:42:58;;;;;;;4.40;0.90;;;;;;;14.69;88.02;99986.66;5054245;28;20433;-69
2023/03/23 10:45:29;;;;;;;5.40;1.10;;;;;;;14.56;87.19;99974.19;5054181;28;20438;-71
2023/03/23 10:47:59;;;;;;;4.80;1.00;;;;;;;14.61;86.37;99991.13;5053937;28;20477;-70
2023/03/23 10:50:30;;;;;;;5.13;1.13;;;;;;;14.55;86.72;99986.22;5053669;28;20497;-70
2023/03/23 10:52:59;;;;;;;7.40;1.10;;;;;;;14.58;86.71;99994.50;5054067;28;20434;-70
2023/03/23 10:55:40;;;;;;;4.70;0.97;;;;;;;14.58;87.15;99980.88;5054064;28;20876;-69
2023/03/23 10:58:10;;;;;;;10.43;1.47;;;;;;;14.67;86.82;99983.50;5053791;28;20522;-69
2023/03/23 11:00:44;;;;;;;5.43;1.30;;;;;;;14.68;85.94;99989.72;5053570;28;20459;-69
2023/03/23 11:03:38;;;;;;;5.00;1.07;;;;;;;14.75;86.83;99998.13;5053616;28;20422;-69
2023/03/23 11:06:07;;;;;;;7.23;1.27;;;;;;;14.80;86.41;99997.91;5053816;28;20470;-69
2023/03/23 11:08:36;;;;;;;4.80;0.90;;;;;;;14.66;85.72;100001.00;5053490;28;20473;-69
2023/03/23 11:11:15;;;;;;;5.70;1.40;;;;;;;14.68;85.74;99997.91;5053291;28;20486;-69
2023/03/23 11:13:45;;;;;;;5.33;1.00;;;;;;;14.74;84.48;100004.72;5053896;28;20433;-69
2023/03/23 11:16:23;;;;;;;4.50;0.87;;;;;;;14.72;84.65;100010.50;5053728;28;20443;-69
2023/03/23 11:18:50;;;;;;;6.60;0.90;;;;;;;14.75;85.39;100004.38;5053303;28;20476;-69
2023/03/23 11:21:17;;;;;;;4.70;0.97;;;;;;;14.87;83.65;100006.28;5053495;28;20605;-69
2023/03/23 11:23:49;;;;;;;5.40;1.27;;;;;;;14.88;83.34;100010.63;5053094;28;20955;-70
2023/03/23 11:26:23;;;;;;;6.40;1.60;;;;;;;15.02;82.58;100012.97;5053434;28;20418;-69
2023/03/23 11:28:54;;;;;;;4.67;0.83;;;;;;;15.09;83.36;100022.13;5053424;28;20461;-69
2023/03/23 11:31:24;;;;;;;4.33;0.80;;;;;;;15.22;82.16;100013.91;5052968;28;20474;-69
2023/03/23 11:33:56;;;;;;;6.13;1.10;;;;;;;15.37;81.58;100022.19;5053319;28;20442;-69
2023/03/23 11:36:31;;;;;;;4.63;0.90;;;;;;;15.49;80.88;100023.25;5053369;28;20454;-70